Etusivu
METAR-TAF:

METAR-TAF

Lentoasemat :

Draugen, Norja

Leveyspiiri: 64-21-20N, Pituuspiiri: 007-47-30E, korkeus merenpinnasta: 0 m

Tämänhetkinen sää

Tämä raportti tehtiin 16 minuuttia sitten, kello 09.50 UTC
Tuuli 12 kn lounaasta
Lämpötila 9°C
Kosteus 100%
Ilmanpaine 1015 hPa

METAR: ENDR 270950Z AUTO 23012KT 09/09 Q1015

Aika: 12:06 (10:06 UTC)


TAF: puuttuu

Säähavainnot ja -ennusteet yli 4000 lentoasemalta (METAR- ja TAF-raportit).

Käytössä olevat sääasemat on merkitty karttaan keltaisilla ja punaisilla pisteillä.

Aseta hiiri pisteen päälle nähdäksesi sääaseman nimen.

Klikkaa sitten nähdäksesi säähavainnot ja -ennusteet.

Kartan vaihtaminen: klikkaa mustalla rastilla varustettuja vihreitä pisteitä, niin voit zoomata sisään; viivalla varustettua vihreää pistettä, niin voit zoomata ulos tai vihreitä nuolia, niin pääset viereisille kartoille.


METAR-TAF: